Jask, Jask Airport (OIZJ)

NameJask Airport
CityJask
CountryIran
ICAOOIZJ
IATA
Altitude6 m
CoordinatesGoogle Map
Live Air TrafficLiveATC.net
METAROIZJ 160900Z 14010KT CAVOK 24/17 Q1015
2019-02-16 09:00:00 Wind: Southeast (140°) 5.14 m/s - Visibility: > 10000 m - Weather: CAVOK - Temperature: 24 °C - Dew point: 17 °C - Humidity: 65% - Pressure: 1015 hPa

Sorry, no flights used the airport in this database.